This is the latest recevied weather packets stored in our database for station/object IU1OLT-5. If no packets are shown the sender has not sent any weather packets the latest 10 day(s).
| Time | Temp. | Humidity | Pressure | Rain* | Wind** | Luminosity | Snow |
|---|---|---|---|---|---|---|---|
| 1777905749 | 17.22° C | 78% | 1017.5 hPa | 0 mm | - | 233 W/m² | - |
| 1777904848 | 17.78° C | 76% | 1018 hPa | 0 mm | - | 322 W/m² | - |
| 1777903947 | 18.33° C | 75% | 1018 hPa | 0 mm | - | 531 W/m² | - |
| 1777903047 | 18.33° C | 76% | 1018 hPa | 0 mm | - | 522 W/m² | - |
| 1777902147 | 17.78° C | 78% | 1018.2 hPa | 0 mm | - | 440 W/m² | - |
| 1777901246 | 17.22° C | 81% | 1018.3 hPa | 0 mm | - | 548 W/m² | - |
| 1777900346 | 18.89° C | 76% | 1018.4 hPa | 0 mm | - | 733 W/m² | - |
| 1777899445 | 18.89° C | 74% | 1018.6 hPa | 0 mm | - | 709 W/m² | - |
| 1777898545 | 17.78° C | 74% | 1018.7 hPa | 0 mm | - | 460 W/m² | - |
| 1777897645 | 18.89° C | 68% | 1018.9 hPa | 0 mm | - | 524 W/m² | - |
| 1777896744 | 16.67° C | 80% | 1018.8 hPa | 0 mm | - | 599 W/m² | - |
| 1777895844 | 17.78° C | 79% | 1018.8 hPa | 0 mm | - | 290 W/m² | - |
| 1777894943 | 17.22° C | 77% | 1019 hPa | 0 mm | - | 684 W/m² | - |
| 1777894043 | 17.22° C | 78% | 1019.2 hPa | 0 mm | - | 463 W/m² | - |
| 1777893143 | 17.22° C | 77% | 1019.3 hPa | 0 mm | - | 449 W/m² | - |
| 1777892242 | 16.67° C | 76% | 1019.2 hPa | 0 mm | - | 292 W/m² | - |
| 1777891342 | 17.22° C | 76% | 1019.2 hPa | 0 mm | - | 372 W/m² | - |
| 1777890442 | 16.67° C | 76% | 1019.3 hPa | 0 mm | - | 356 W/m² | - |
| 1777889542 | 16.67° C | 76% | 1019.6 hPa | 0 mm | - | 332 W/m² | - |
| 1777888641 | 16.11° C | 77% | 1019.5 hPa | 0 mm | - | 434 W/m² | - |
| 1777887741 | 16.11° C | 75% | 1019.3 hPa | 0 mm | - | 313 W/m² | - |
| 1777886841 | 16.67° C | 76% | 1019.2 hPa | 0 mm | - | 469 W/m² | - |
| 1777885941 | 16.11° C | 78% | 1019.3 hPa | 0 mm | - | 323 W/m² | - |
| 1777885041 | 16.11° C | 78% | 1019.4 hPa | 0 mm | - | 280 W/m² | - |
| 1777884140 | 16.11° C | 74% | 1019.4 hPa | 0 mm | - | 307 W/m² | - |
* Rain latest hour (hover to see other rain measurements)
** Current wind speed in m/s (hover to see current wind gust speed)